Time;durP1;ratioP1;P1;durP2;ratioP2;P2;SDS_P1;SDS_P2;PMS_P1;PMS_P2;Temp;Humidity;BMP_temperature;BMP_pressure;BME280_temperature;BME280_humidity;BME280_pressure;Samples;Min_cycle;Max_cycle;Signal;HPM_P1;HPM_P2
2023/01/12 00:02:03;;;;;;;49.22;29.77;;;;;;;4.07;100.00;99028.13;5157517;27;20061;-95
2023/01/12 00:04:30;;;;;;;49.72;30.65;;;;;;;4.13;100.00;99022.00;5157704;27;20070;-93
2023/01/12 00:06:57;;;;;;;50.85;29.90;;;;;;;4.08;100.00;99006.22;5159592;27;20074;-95
2023/01/12 00:09:23;;;;;;;56.17;32.88;;;;;;;4.16;100.00;99043.06;5158713;27;20137;-95
2023/01/12 00:11:49;;;;;;;52.45;31.55;;;;;;;4.04;100.00;99028.13;5158676;27;20107;-93
2023/01/12 00:14:15;;;;;;;50.35;30.40;;;;;;;4.09;100.00;99026.38;5158937;27;20051;-94
2023/01/12 00:16:41;;;;;;;50.63;30.60;;;;;;;4.21;100.00;99038.72;5158618;27;20476;-94
2023/01/12 00:19:10;;;;;;;47.97;29.00;;;;;;;4.03;100.00;98986.88;5158795;27;20046;-94
2023/01/12 00:21:45;;;;;;;;;;;;;;;4.32;100.00;99029.09;5158451;27;20107;-93
2023/01/12 00:24:15;;;;;;;51.65;29.40;;;;;;;4.24;100.00;99015.00;5157982;27;19919;-93
2023/01/12 00:26:41;;;;;;;44.67;28.55;;;;;;;4.23;100.00;99010.66;5143761;27;20056;-93
2023/01/12 00:29:07;;;;;;;47.20;28.33;;;;;;;4.39;99.69;99027.34;5144097;27;20487;-93
2023/01/12 00:31:34;;;;;;;49.97;30.40;;;;;;;4.28;99.84;99011.53;5143675;27;20518;-92
2023/01/12 00:34:00;;;;;;;44.33;27.88;;;;;;;4.24;99.37;98993.97;5144164;27;20046;-94
2023/01/12 00:36:26;;;;;;;45.45;28.65;;;;;;;4.31;99.71;99006.25;5143807;27;20050;-95
2023/01/12 00:38:53;;;;;;;45.28;28.17;;;;;;;4.28;99.31;98989.59;5144059;27;20034;-93
2023/01/12 00:47:19;;;;;;;42.00;27.02;;;;;;;4.50;99.30;99036.13;5115279;27;20365;-94
2023/01/12 00:49:49;;;;;;;43.17;27.98;;;;;;;4.27;98.96;98982.53;5096874;28;20072;-92
2023/01/12 00:52:17;;;;;;;42.33;28.48;;;;;;;4.31;99.17;98995.72;5096700;28;20401;-95
2023/01/12 00:54:43;;;;;;;42.40;27.83;;;;;;;4.55;99.99;99038.75;5097280;28;20096;-95
2023/01/12 00:57:12;;;;;;;43.65;27.25;;;;;;;4.35;100.00;99006.28;5118148;27;20063;-95
2023/01/12 00:59:38;;;;;;;42.30;27.27;;;;;;;4.51;100.00;99030.00;5118786;27;20065;-95
2023/01/12 01:02:04;;;;;;;44.70;28.05;;;;;;;4.37;100.00;99013.28;5116173;28;20035;-94
2023/01/12 01:04:33;;;;;;;43.00;27.05;;;;;;;4.33;100.00;99014.16;5117536;28;20135;-94
2023/01/12 01:06:59;;;;;;;43.72;28.65;;;;;;;4.57;100.00;99051.94;5117470;28;20043;-94
2023/01/12 01:09:25;;;;;;;46.92;28.95;;;;;;;4.45;100.00;99029.13;5110525;28;20044;-95
2023/01/12 01:11:51;;;;;;;46.33;29.17;;;;;;;4.40;100.00;99026.47;5107336;28;20066;-95
2023/01/12 01:14:17;;;;;;;45.17;29.65;;;;;;;4.36;100.00;99023.81;5112736;28;20040;-94
2023/01/12 01:16:43;;;;;;;43.60;29.20;;;;;;;4.31;100.00;99024.69;5109800;28;20036;-93
2023/01/12 01:19:09;;;;;;;46.45;28.50;;;;;;;4.27;100.00;99038.72;5103140;28;20097;-92
2023/01/12 01:21:36;;;;;;;46.25;28.80;;;;;;;4.21;100.00;99036.06;5107024;28;20040;-94
2023/01/12 01:24:02;;;;;;;48.33;29.23;;;;;;;4.29;100.00;99062.41;5105074;28;20051;-94
2023/01/12 01:26:30;;;;;;;44.50;26.55;;;;;;;4.24;100.00;99053.63;5102911;28;20040;-95
2023/01/12 01:28:56;;;;;;;45.83;26.85;;;;;;;4.21;100.00;99056.25;5110230;28;20046;-94
2023/01/12 01:31:24;;;;;;;44.50;28.23;;;;;;;4.11;100.00;99031.66;5101010;28;20454;-92
2023/01/12 01:33:50;;;;;;;41.63;25.58;;;;;;;4.09;100.00;99034.28;5104970;28;20027;-92
2023/01/12 01:36:17;;;;;;;40.58;25.08;;;;;;;4.00;100.00;99025.47;5101134;28;20092;-93
2023/01/12 01:38:46;;;;;;;43.75;26.55;;;;;;;3.95;100.00;99032.47;5109022;27;20067;-93
2023/01/12 01:41:17;;;;;;;40.70;25.80;;;;;;;3.84;100.00;99024.56;5099420;28;20052;-92
2023/01/12 05:13:11;;;;;;;40.92;23.98;;;;;;;3.69;100.00;99092.00;5189671;27;20212;-95
2023/01/12 05:15:37;;;;;;;44.92;26.98;;;;;;;3.68;100.00;99094.59;5060910;27;1717998;-95
2023/01/12 05:18:03;;;;;;;41.65;25.60;;;;;;;3.81;100.00;99117.47;5114743;28;20039;-96
2023/01/12 05:20:29;;;;;;;40.28;26.73;;;;;;;3.67;100.00;99099.00;5115448;28;20059;-95
2023/01/12 05:22:55;;;;;;;41.35;25.45;;;;;;;3.83;100.00;99123.63;5115734;28;20048;-95
2023/01/12 05:25:21;;;;;;;43.95;26.60;;;;;;;3.72;100.00;99095.50;5115235;28;20044;-95
2023/01/12 05:27:47;;;;;;;42.42;25.67;;;;;;;3.68;100.00;99089.34;5114501;28;20621;-95
2023/01/12 05:30:15;;;;;;;41.17;25.92;;;;;;;3.87;100.00;99116.63;5114782;28;20067;-95
2023/01/12 05:32:41;;;;;;;41.17;26.85;;;;;;;3.84;100.00;99106.97;5113804;28;20046;-94
2023/01/12 05:35:08;;;;;;;45.33;29.85;;;;;;;3.65;100.00;99089.34;5115501;28;20135;-94
2023/01/12 05:37:34;;;;;;;43.22;26.92;;;;;;;3.79;100.00;99119.22;5114847;28;20431;-95
2023/01/12 05:40:00;;;;;;;42.15;27.08;;;;;;;3.65;100.00;99099.84;5114348;28;20046;-95
2023/01/12 05:45:25;;;;;;;47.33;29.40;;;;;;;3.78;100.00;99138.50;5112512;27;20370;-95
2023/01/12 05:47:56;;;;;;;48.28;28.10;;;;;;;3.67;100.00;99116.53;5094962;28;20044;-96
2023/01/12 05:50:22;;;;;;;47.13;30.25;;;;;;;3.79;100.00;99129.72;5094787;28;20040;-95
2023/01/12 05:52:50;;;;;;;44.28;27.58;;;;;;;3.75;100.00;99127.06;5094645;28;20051;-94
2023/01/12 05:55:16;;;;;;;43.00;26.27;;;;;;;3.66;100.00;99120.00;5094693;28;20054;-96
2023/01/12 05:57:42;;;;;;;38.42;24.13;;;;;;;3.73;100.00;99118.28;5094179;28;20044;-96
2023/01/12 06:00:09;;;;;;;43.75;26.30;;;;;;;3.72;100.00;99125.31;5093235;28;20398;-94
2023/01/12 06:02:36;;;;;;;34.70;23.85;;;;;;;3.84;100.00;99135.91;5093957;28;20093;-95
2023/01/12 06:05:05;;;;;;;34.30;23.60;;;;;;;3.78;100.00;99128.00;5094428;28;20068;-95
2023/01/12 06:07:31;;;;;;;39.90;22.77;;;;;;;3.93;100.00;99132.47;5094546;28;20113;-95
2023/01/12 06:09:57;;;;;;;36.80;23.30;;;;;;;3.94;100.00;99131.56;5095613;28;20481;-96
2023/01/12 06:15:19;;;;;;;36.53;23.17;;;;;;;3.87;100.00;99122.78;5118655;27;20387;-95
2023/01/12 06:17:45;;;;;;;34.30;22.63;;;;;;;3.93;100.00;99127.19;5119297;28;20050;-95
2023/01/12 06:20:15;;;;;;;35.60;22.17;;;;;;;3.98;100.00;99120.19;5117598;28;20051;-96
2023/01/12 06:22:42;;;;;;;33.90;22.85;;;;;;;3.90;100.00;99114.91;5116918;28;20051;-95
2023/01/12 06:25:09;;;;;;;32.17;22.98;;;;;;;4.01;100.00;99146.53;5118278;28;20043;-95
2023/01/12 06:27:37;;;;;;;29.75;20.02;;;;;;;3.83;100.00;99109.59;5116600;28;20051;-93
2023/01/12 06:30:04;;;;;;;32.17;22.20;;;;;;;3.99;100.00;99143.03;5112414;28;20549;-95
2023/01/12 06:32:31;;;;;;;33.60;20.92;;;;;;;3.86;100.00;99126.28;5112715;28;20130;-95
2023/01/12 06:34:57;;;;;;;30.77;19.55;;;;;;;3.84;100.00;99122.75;5112416;28;20044;-94
2023/01/12 06:37:23;;;;;;;29.70;18.63;;;;;;;3.99;100.00;99145.66;5113190;28;20044;-94
2023/01/12 06:39:49;;;;;;;26.98;16.85;;;;;;;3.90;100.00;99133.31;5114421;28;20089;-95
2023/01/12 06:45:17;;;;;;;21.45;14.63;;;;;;;4.01;100.00;99130.75;5139758;27;20384;-94
2023/01/12 06:47:44;;;;;;;27.20;16.15;;;;;;;4.17;100.00;99136.09;5138741;27;20135;-92
2023/01/12 06:50:11;;;;;;;25.48;16.67;;;;;;;4.36;100.00;99143.19;5137324;28;20069;-94
2023/01/12 06:52:37;;;;;;;22.70;13.93;;;;;;;4.49;100.00;99129.19;5137621;27;20039;-94
2023/01/12 06:55:04;;;;;;;21.67;12.93;;;;;;;4.74;100.00;99151.19;5138158;28;20418;-94
2023/01/12 06:57:30;;;;;;;18.63;12.00;;;;;;;4.62;100.00;99122.22;5136422;28;20039;-91
2023/01/12 06:59:56;;;;;;;20.75;12.30;;;;;;;4.78;100.00;99136.28;5134627;28;20046;-94
2023/01/12 07:02:23;;;;;;;20.58;11.93;;;;;;;4.73;100.00;99119.59;5134637;28;20114;-94
2023/01/12 07:04:49;;;;;;;18.73;11.27;;;;;;;4.85;100.00;99129.25;5134085;28;20043;-93
2023/01/12 07:07:15;;;;;;;17.92;11.27;;;;;;;4.81;100.00;99122.22;5134495;28;20061;-91
2023/01/12 07:09:41;;;;;;;15.85;11.15;;;;;;;4.87;100.00;99130.16;5134449;28;20056;-93
2023/01/12 07:12:07;;;;;;;17.98;11.68;;;;;;;4.83;100.00;99128.38;5134266;28;20043;-92
2023/01/12 07:14:33;;;;;;;17.27;11.10;;;;;;;4.90;100.00;99145.94;5133789;28;20031;-92
2023/01/12 07:16:58;;;;;;;14.45;9.68;;;;;;;4.92;100.00;99150.38;5133697;28;20031;-93
2023/01/12 07:19:26;;;;;;;15.68;10.95;;;;;;;5.00;100.00;99155.63;5134184;28;20051;-92
2023/01/12 07:21:52;;;;;;;14.48;9.60;;;;;;;5.14;100.00;99176.75;5134271;27;20039;-91
2023/01/12 07:24:18;;;;;;;13.07;8.45;;;;;;;5.39;99.57;99195.22;5135095;28;20039;-91
2023/01/12 07:26:48;;;;;;;12.95;7.85;;;;;;;5.19;97.88;99167.09;5136595;28;20046;-94
2023/01/12 07:29:14;;;;;;;12.13;7.28;;;;;;;5.30;98.94;99178.53;5135482;28;20047;-94
2023/01/12 07:31:40;;;;;;;11.27;7.65;;;;;;;5.43;96.82;99211.06;5136223;28;20046;-93
2023/01/12 07:34:06;;;;;;;12.52;7.22;;;;;;;5.47;94.58;99183.81;5134995;28;20047;-94
2023/01/12 07:36:34;;;;;;;12.73;7.15;;;;;;;5.51;95.04;99185.56;5137250;28;20047;-93
2023/01/12 07:38:59;;;;;;;12.68;9.10;;;;;;;5.51;94.66;99188.22;5134600;28;20043;-93
2023/01/12 07:44:35;;;;;;;11.60;8.02;;;;;;;5.71;94.25;99196.09;5157898;27;20376;-93
2023/01/12 07:47:02;;;;;;;12.43;7.28;;;;;;;5.79;94.82;99197.84;5115129;28;20493;-95
2023/01/12 07:49:28;;;;;;;10.60;6.55;;;;;;;5.88;93.05;99211.94;5115291;28;20043;-94
2023/01/12 07:51:54;;;;;;;10.73;7.45;;;;;;;5.97;95.08;99209.31;5115496;28;20044;-95
2023/01/12 07:54:21;;;;;;;11.35;7.72;;;;;;;5.91;94.14;99198.72;5116078;28;20077;-91
2023/01/12 07:56:47;;;;;;;11.45;7.13;;;;;;;6.12;89.60;99210.19;5115282;28;20043;-95
2023/01/12 07:59:13;;;;;;;11.63;7.45;;;;;;;6.25;90.95;99213.66;5114579;28;20040;-95
2023/01/12 08:01:40;;;;;;;15.15;7.97;;;;;;;6.32;91.25;99208.34;5113928;28;20046;-94
2023/01/12 08:04:07;;;;;;;10.68;6.80;;;;;;;6.36;92.52;99203.94;5114118;28;20067;-94
2023/01/12 08:06:33;;;;;;;13.10;8.43;;;;;;;6.31;94.91;99198.69;5115943;28;20066;-95
2023/01/12 08:08:59;;;;;;;14.38;9.18;;;;;;;6.43;96.81;99234.72;5114764;28;20051;-95
2023/01/12 08:11:25;;;;;;;14.38;8.25;;;;;;;6.37;93.56;99200.41;5115886;28;20448;-94
2023/01/12 08:13:53;;;;;;;14.50;8.73;;;;;;;6.44;93.34;99199.53;5115402;28;20047;-93
2023/01/12 08:16:23;;;;;;;15.18;9.23;;;;;;;6.51;94.33;99184.53;5115574;28;20055;-94
2023/01/12 08:18:55;;;;;;;14.65;10.25;;;;;;;6.65;94.58;99173.88;5116330;28;20040;-92
2023/01/12 08:21:26;;;;;;;20.23;13.10;;;;;;;6.32;98.14;99179.28;5115392;28;20052;-94
2023/01/12 08:23:55;;;;;;;18.13;12.32;;;;;;;6.28;97.13;99172.25;5114807;28;20035;-94
2023/01/12 08:26:26;;;;;;;19.55;13.23;;;;;;;6.16;97.14;99186.41;5115312;28;20093;-95
2023/01/12 08:28:58;;;;;;;23.17;15.30;;;;;;;6.24;99.62;99215.41;5115408;28;20046;-93
2023/01/12 08:31:26;;;;;;;24.77;15.02;;;;;;;6.43;100.00;99224.16;5115132;28;20464;-94
2023/01/12 08:33:54;;;;;;;26.88;14.98;;;;;;;6.37;100.00;99219.75;5114442;28;20040;-94
2023/01/12 08:36:21;;;;;;;23.17;12.98;;;;;;;6.34;98.43;99206.59;5115997;28;20039;-95
2023/01/12 08:38:47;;;;;;;20.27;14.13;;;;;;;6.47;98.27;99243.53;5118331;28;20063;-93
2023/01/12 08:44:25;;;;;;;16.25;10.02;;;;;;;6.70;93.23;99212.63;5159845;27;20389;-95
2023/01/12 08:46:52;;;;;;;14.85;9.73;;;;;;;6.92;88.26;99201.97;5136944;28;20054;-95
2023/01/12 08:49:23;;;;;;;13.77;9.43;;;;;;;7.17;88.41;99206.19;5137823;28;20069;-94
2023/01/12 08:51:49;;;;;;;12.77;8.40;;;;;;;7.26;86.30;99192.03;5136633;27;20115;-94
2023/01/12 08:54:17;;;;;;;12.15;7.85;;;;;;;7.41;84.11;99185.75;5138736;27;20138;-95
2023/01/12 08:56:43;;;;;;;12.32;7.88;;;;;;;7.53;81.40;99190.94;5139908;27;20048;-94
2023/01/12 08:59:10;;;;;;;11.25;7.00;;;;;;;7.69;82.25;99202.28;5150230;27;20103;-94
2023/01/12 09:01:37;;;;;;;11.75;7.60;;;;;;;7.94;80.91;99210.91;5145976;27;20051;-94
2023/01/12 09:04:04;;;;;;;11.45;7.15;;;;;;;8.00;79.83;99202.91;5137022;28;20036;-95
2023/01/12 09:06:33;;;;;;;12.63;7.35;;;;;;;8.08;81.32;99201.94;5137602;27;20040;-95
2023/01/12 09:09:02;;;;;;;12.23;8.02;;;;;;;7.96;80.39;99190.56;5136942;27;20047;-94
2023/01/12 09:11:29;;;;;;;11.18;7.88;;;;;;;8.12;81.05;99201.00;5148646;27;20054;-95
2023/01/12 09:13:57;;;;;;;10.80;6.93;;;;;;;8.38;79.89;99219.28;5158712;27;20115;-95
2023/01/12 09:16:25;;;;;;;10.43;7.07;;;;;;;8.66;79.44;99251.69;5152357;27;20130;-94
2023/01/12 09:18:52;;;;;;;13.07;6.55;;;;;;;8.70;77.45;99245.47;5137535;27;20039;-94
2023/01/12 09:21:20;;;;;;;12.90;7.60;;;;;;;8.78;77.29;99269.22;5136668;27;20511;-92
2023/01/12 09:23:48;;;;;;;8.90;5.82;;;;;;;8.57;77.42;99251.78;5137978;27;20032;-95
2023/01/12 09:26:16;;;;;;;11.83;7.03;;;;;;;8.57;77.92;99251.78;5136614;27;20134;-95
2023/01/12 09:28:43;;;;;;;11.05;6.32;;;;;;;8.64;76.73;99242.88;5135133;27;20271;-95
2023/01/12 09:31:11;;;;;;;11.90;7.30;;;;;;;8.60;76.71;99257.06;5138473;27;20053;-93
2023/01/12 09:33:39;;;;;;;10.10;5.95;;;;;;;8.84;75.12;99237.31;5133559;27;20042;-94
2023/01/12 09:36:09;;;;;;;10.15;5.97;;;;;;;8.86;74.96;99259.41;5134541;27;20081;-95
2023/01/12 09:38:36;;;;;;;11.88;6.15;;;;;;;9.00;76.35;99261.84;5132244;27;20035;-94
2023/01/12 09:41:08;;;;;;;10.15;7.15;;;;;;;8.97;74.10;99264.56;5136481;27;20134;-95
2023/01/12 09:49:41;;;;;;;9.65;6.05;;;;;;;9.16;76.37;99267.88;5111779;27;20394;-95
2023/01/12 09:52:15;;;;;;;9.63;6.53;;;;;;;9.00;73.29;99257.47;5094080;28;20090;-96
2023/01/12 09:54:41;;;;;;;9.75;6.38;;;;;;;9.00;75.12;99240.63;5094541;28;20040;-93
2023/01/12 09:57:22;;;;;;;8.90;5.78;;;;;;;9.09;73.69;99244.97;5093885;28;20524;-94
2023/01/12 09:59:56;;;;;;;9.45;6.05;;;;;;;9.43;71.56;99253.31;5092334;28;20454;-93
2023/01/12 10:02:23;;;;;;;7.88;5.07;;;;;;;9.51;71.65;99255.88;5091520;28;20070;-92
2023/01/12 10:04:53;;;;;;;11.15;6.10;;;;;;;9.55;69.94;99263.75;5097337;28;20485;-94
2023/01/12 10:07:19;;;;;;;9.55;5.60;;;;;;;9.50;73.38;99262.06;5097331;28;20529;-93
2023/01/12 10:09:45;;;;;;;9.23;5.28;;;;;;;9.59;69.07;99252.19;5091606;28;20044;-93
2023/01/12 10:12:20;;;;;;;8.85;5.20;;;;;;;9.65;68.87;99238.84;5096157;28;20040;-92
2023/01/12 10:15:25;;;;;;;9.65;5.22;;;;;;;9.88;68.66;99261.47;5112863;28;20068;-93
2023/01/12 10:17:57;;;;;;;9.85;5.20;;;;;;;10.11;68.13;99258.44;5092172;28;20060;-91
2023/01/12 10:20:29;;;;;;;8.65;5.15;;;;;;;10.17;69.61;99257.44;5071553;28;20041;-94
2023/01/12 10:23:00;;;;;;;7.35;4.95;;;;;;;10.06;69.32;99253.22;5070679;28;20420;-92
2023/01/12 10:25:33;;;;;;;13.07;6.18;;;;;;;10.06;67.74;99270.91;5085057;28;20504;-94
2023/01/12 10:28:05;;;;;;;9.65;5.80;;;;;;;9.78;69.46;99267.81;5091434;28;20398;-94
2023/01/12 10:30:34;;;;;;;9.30;5.60;;;;;;;9.56;70.09;99273.47;5093702;28;20074;-94
2023/01/12 10:33:09;;;;;;;8.05;5.25;;;;;;;9.53;70.92;99259.38;5091183;28;20408;-94
2023/01/12 10:35:48;;;;;;;8.85;5.32;;;;;;;9.25;71.44;99220.84;5101515;28;20098;-94
2023/01/12 10:38:18;;;;;;;;;;;;;;;9.61;71.20;99271.63;5071497;28;20367;-95
2023/01/12 10:41:02;;;;;;;9.50;6.07;;;;;;;9.58;71.41;99255.75;5086587;28;20304;-94
2023/01/12 10:43:32;;;;;;;9.00;5.47;;;;;;;9.68;71.25;99258.28;5089313;28;20044;-93
2023/01/12 10:46:04;;;;;;;8.70;5.07;;;;;;;9.94;68.69;99268.47;5090751;28;20048;-95
2023/01/12 10:48:31;;;;;;;7.63;4.65;;;;;;;10.10;69.88;99258.47;5090429;28;20518;-93
2023/01/12 10:51:00;;;;;;;8.13;5.18;;;;;;;10.10;70.76;99255.81;5092304;28;20117;-91
2023/01/12 10:53:34;;;;;;;8.23;4.93;;;;;;;10.12;68.36;99243.38;5097005;28;20108;-94
2023/01/12 10:56:09;;;;;;;9.23;4.95;;;;;;;10.06;70.40;99253.22;5091111;28;20044;-94
2023/01/12 10:58:35;;;;;;;7.50;5.32;;;;;;;10.02;67.71;99253.28;5111538;28;20090;-96
2023/01/12 11:01:04;;;;;;;6.93;4.60;;;;;;;9.96;68.54;99235.66;5085642;28;20040;-93
2023/01/12 11:03:32;;;;;;;8.40;5.13;;;;;;;10.12;67.75;99249.56;5079268;28;20044;-94
2023/01/12 11:06:22;;;;;;;8.87;5.47;;;;;;;10.08;67.82;99254.06;5079401;28;20556;-91
2023/01/12 11:08:48;;;;;;;7.57;5.15;;;;;;;9.89;67.21;99226.06;5080010;28;20497;-95
2023/01/12 11:11:21;;;;;;;8.15;4.90;;;;;;;10.06;67.55;99247.00;5077784;28;20500;-94
2023/01/12 11:13:50;;;;;;;7.95;4.78;;;;;;;10.08;68.61;99246.09;5091507;28;20047;-95
2023/01/12 11:16:20;;;;;;;6.60;4.57;;;;;;;10.15;67.97;99222.03;5089343;28;20047;-93
2023/01/12 11:18:52;;;;;;;8.60;4.35;;;;;;;10.38;68.88;99242.94;5079001;28;20041;-94
2023/01/12 11:21:24;;;;;;;7.03;4.68;;;;;;;10.18;68.76;99220.22;5077780;28;20062;-95
2023/01/12 11:23:57;;;;;;;9.13;5.35;;;;;;;10.11;68.03;99209.75;5082295;28;20051;-95
2023/01/12 11:26:29;;;;;;;7.90;4.53;;;;;;;10.07;66.27;99195.63;5082465;28;20055;-95
2023/01/12 11:28:59;;;;;;;8.38;5.22;;;;;;;10.32;65.65;99227.94;5077979;28;20489;-93
2023/01/12 11:31:29;;;;;;;8.13;5.05;;;;;;;10.22;67.80;99200.66;5088316;28;20392;-93
2023/01/12 11:34:00;;;;;;;9.07;4.80;;;;;;;10.21;68.25;99188.28;5094897;28;20496;-93
2023/01/12 11:36:32;;;;;;;9.27;5.43;;;;;;;10.32;67.72;99185.41;5079940;28;20054;-93
2023/01/12 11:39:02;;;;;;;8.57;5.03;;;;;;;10.35;67.61;99206.66;5077560;28;20080;-93
2023/01/12 11:41:34;;;;;;;8.98;5.70;;;;;;;10.35;68.09;99209.31;5078207;28;20135;-94
2023/01/12 11:44:07;;;;;;;7.28;4.97;;;;;;;10.37;67.31;99214.59;5094827;28;20062;-95
2023/01/12 11:46:38;;;;;;;14.55;7.38;;;;;;;10.39;68.15;99197.72;5080900;28;20051;-95
2023/01/12 11:49:11;;;;;;;14.80;7.93;;;;;;;10.35;66.75;99179.19;5077779;28;20053;-96
2023/01/12 11:51:39;;;;;;;9.23;5.35;;;;;;;10.38;66.03;99177.34;5078032;28;20046;-95
2023/01/12 11:54:12;;;;;;;13.52;6.55;;;;;;;10.30;66.31;99173.97;5077170;28;20044;-94
2023/01/12 11:56:56;;;;;;;9.70;5.65;;;;;;;10.45;67.46;99188.72;5076968;28;20409;-95
2023/01/12 11:59:30;;;;;;;9.60;5.18;;;;;;;10.40;68.17;99162.22;5088765;28;20498;-94
2023/01/12 12:02:09;;;;;;;9.48;5.75;;;;;;;10.26;68.02;99159.81;5085791;28;20044;-95
2023/01/12 12:04:50;;;;;;;9.13;5.30;;;;;;;10.52;69.03;99173.50;5072246;28;20131;-93
2023/01/12 12:07:32;;;;;;;7.68;5.18;;;;;;;10.57;67.70;99180.50;5083133;28;20043;-94
2023/01/12 12:10:15;;;;;;;8.98;5.00;;;;;;;10.51;67.78;99164.66;5071503;28;20043;-94
2023/01/12 12:13:00;;;;;;;11.52;5.22;;;;;;;10.62;66.39;99177.75;5078718;28;20127;-93
2023/01/12 12:15:34;;;;;;;7.55;4.50;;;;;;;10.59;66.03;99153.88;5077973;28;20127;-91
2023/01/12 12:18:12;;;;;;;8.63;4.90;;;;;;;10.70;65.85;99181.13;5076269;28;20151;-91
2023/01/12 12:20:47;;;;;;;6.18;4.22;;;;;;;10.68;65.85;99165.19;5079972;28;20101;-92
2023/01/12 12:23:28;;;;;;;7.05;4.80;;;;;;;10.75;64.40;99183.69;5078852;28;20049;-94
2023/01/12 12:26:05;;;;;;;7.30;4.80;;;;;;;10.80;64.03;99176.47;5084132;28;20098;-92
2023/01/12 12:28:56;;;;;;;7.03;4.30;;;;;;;10.82;65.43;99183.53;5082163;28;20044;-91
2023/01/12 12:31:37;;;;;;;6.93;4.38;;;;;;;10.90;64.47;99180.69;5080839;28;20039;-91
2023/01/12 12:34:29;;;;;;;7.25;4.55;;;;;;;10.81;65.50;99170.25;5081536;28;20137;-91
2023/01/12 12:37:03;;;;;;;7.28;4.00;;;;;;;10.95;64.32;99172.59;5076392;28;20090;-91
2023/01/12 12:39:42;;;;;;;9.52;4.32;;;;;;;10.78;65.06;99147.28;5076126;28;20516;-93
2023/01/12 12:45:33;;;;;;;7.90;4.30;;;;;;;10.97;66.16;99176.13;5102280;27;20571;-92
2023/01/12 12:48:10;;;;;;;9.55;4.18;;;;;;;10.94;65.47;99176.19;5066405;28;20052;-92
2023/01/12 12:50:40;;;;;;;9.30;4.63;;;;;;;11.01;64.07;99185.78;5070866;28;20046;-93
2023/01/12 12:53:14;;;;;;;6.50;3.70;;;;;;;11.15;63.44;99214.78;5070926;28;20095;-93
2023/01/12 12:55:41;;;;;;;8.82;4.50;;;;;;;11.18;64.76;99214.69;5069527;28;20068;-95
2023/01/12 12:58:25;;;;;;;9.80;4.97;;;;;;;11.04;65.12;99201.72;5070377;28;20041;-93
2023/01/12 13:01:41;;;;;;;7.38;4.55;;;;;;;11.19;63.12;99208.44;5069757;28;20052;-93
2023/01/12 13:04:09;;;;;;;6.38;4.35;;;;;;;11.17;63.77;99183.66;5069035;28;20094;-92
2023/01/12 13:06:37;;;;;;;5.40;3.60;;;;;;;11.09;61.62;99179.38;5070020;28;20521;-92
2023/01/12 13:09:39;;;;;;;8.00;4.22;;;;;;;10.96;63.00;99172.59;5070459;28;20401;-93
2023/01/12 13:12:30;;;;;;;7.03;4.50;;;;;;;11.15;63.25;99194.34;5067763;28;20060;-94
2023/01/12 13:15:25;;;;;;;5.78;3.55;;;;;;;11.12;63.47;99178.44;5069592;28;20045;-93
2023/01/12 13:17:53;;;;;;;7.38;4.70;;;;;;;11.07;64.06;99175.00;5069385;28;20135;-93
2023/01/12 13:20:35;;;;;;;5.95;3.80;;;;;;;11.10;63.31;99165.19;5069140;28;20555;-93
2023/01/12 13:23:01;;;;;;;6.35;4.00;;;;;;;11.26;62.57;99179.00;5069075;28;20037;-92
2023/01/12 13:25:54;;;;;;;6.13;3.83;;;;;;;11.20;62.55;99155.19;5067818;28;20041;-92
2023/01/12 13:28:20;;;;;;;9.55;5.47;;;;;;;11.24;63.44;99164.84;5068323;28;20486;-92
2023/01/12 13:30:49;;;;;;;10.23;5.75;;;;;;;10.96;64.64;99137.13;5069505;28;20041;-94
2023/01/12 13:33:26;;;;;;;12.10;6.55;;;;;;;10.89;65.50;99150.56;5069031;28;20516;-94
2023/01/12 13:36:07;;;;;;;13.57;7.22;;;;;;;10.92;64.15;99146.09;5066205;28;20067;-92
2023/01/12 13:38:43;;;;;;;8.55;5.65;;;;;;;10.85;63.45;99156.84;5068890;28;20098;-90
2023/01/12 13:44:27;;;;;;;8.32;5.65;;;;;;;10.73;64.47;99159.78;5130860;27;20387;-93
2023/01/12 13:47:07;;;;;;;8.90;5.95;;;;;;;10.85;64.79;99179.94;5127789;28;20043;-93
2023/01/12 13:49:35;;;;;;;7.38;4.43;;;;;;;10.74;65.14;99169.53;5130025;28;20067;-92
2023/01/12 13:52:03;;;;;;;9.85;5.30;;;;;;;10.67;65.01;99147.50;5131376;28;20426;-92
2023/01/12 13:54:29;;;;;;;7.03;4.65;;;;;;;10.81;64.25;99181.78;5131381;28;20122;-93
2023/01/12 13:56:58;;;;;;;10.48;5.53;;;;;;;10.77;63.31;99180.09;5130342;28;20510;-94
2023/01/12 13:59:26;;;;;;;6.93;4.32;;;;;;;10.65;64.88;99199.84;5130575;28;20042;-92
2023/01/12 14:01:54;;;;;;;5.90;3.70;;;;;;;10.76;64.11;99215.59;5129315;28;20039;-93
2023/01/12 14:04:56;;;;;;;5.88;3.90;;;;;;;10.65;65.16;99226.44;5130961;28;20032;-93
2023/01/12 14:07:36;;;;;;;7.35;4.43;;;;;;;10.65;64.34;99225.56;5130333;28;20039;-93
2023/01/12 14:10:18;;;;;;;8.40;5.07;;;;;;;10.68;65.81;99225.50;5130163;28;20069;-93
2023/01/12 14:13:17;;;;;;;5.53;3.05;;;;;;;10.57;65.81;99227.50;5129788;28;20031;-93
2023/01/12 14:18:47;;;;;;;5.88;3.67;;;;;;;10.53;63.97;99220.50;5133093;27;20387;-93
2023/01/12 14:21:22;;;;;;;11.25;4.68;;;;;;;10.38;65.47;99214.56;5130409;28;20096;-93
2023/01/12 14:23:48;;;;;;;4.85;3.33;;;;;;;10.37;65.75;99218.13;5130492;28;20036;-94
2023/01/12 14:26:21;;;;;;;6.05;3.65;;;;;;;10.30;66.30;99219.16;5131301;27;20036;-92
2023/01/12 14:28:49;;;;;;;8.70;4.65;;;;;;;10.20;67.11;99212.22;5129443;28;20043;-92
2023/01/12 14:31:22;;;;;;;5.57;3.40;;;;;;;10.23;67.60;99220.13;5128671;28;20039;-93
2023/01/12 14:33:52;;;;;;;5.72;3.05;;;;;;;10.34;65.63;99220.81;5129724;28;20036;-92
2023/01/12 14:36:22;;;;;;;6.10;3.00;;;;;;;10.36;65.54;99228.78;5130784;28;20480;-91
2023/01/12 14:38:49;;;;;;;7.18;4.15;;;;;;;10.24;66.43;99217.44;5129951;28;20070;-94
2023/01/12 14:47:05;;;;;;;6.60;3.85;;;;;;;9.97;68.08;99220.59;5101978;27;20367;-91
2023/01/12 14:49:33;;;;;;;7.72;4.43;;;;;;;10.01;68.12;99204.56;5069267;28;20128;-92
2023/01/12 14:52:01;;;;;;;6.75;4.15;;;;;;;10.02;68.09;99211.66;5068813;28;20052;-92
2023/01/12 14:54:28;;;;;;;5.85;3.78;;;;;;;9.81;68.84;99198.75;5069244;28;20087;-92
2023/01/12 14:56:58;;;;;;;5.50;3.05;;;;;;;9.86;68.52;99200.41;5070292;28;20128;-90
2023/01/12 14:59:28;;;;;;;6.82;3.53;;;;;;;9.80;69.61;99211.16;5069489;28;20413;-93
2023/01/12 15:02:20;;;;;;;6.50;3.92;;;;;;;9.59;70.68;99207.06;5068657;28;20048;-91
2023/01/12 15:04:52;;;;;;;5.45;3.17;;;;;;;9.75;69.49;99241.34;5069762;28;20049;-93
2023/01/12 15:07:20;;;;;;;6.82;4.13;;;;;;;9.63;70.39;99226.50;5070982;28;20041;-93
2023/01/12 15:09:52;;;;;;;8.68;3.88;;;;;;;9.55;70.47;99223.94;5071641;28;20131;-93
2023/01/12 15:12:40;;;;;;;5.68;3.95;;;;;;;9.54;70.96;99222.19;5071884;28;20044;-90
2023/01/12 15:15:18;;;;;;;6.23;3.67;;;;;;;9.42;71.54;99215.28;5069288;28;20383;-91
2023/01/12 15:26:48;;;;;;;5.90;3.78;;;;;;;9.34;71.93;99224.25;5151786;27;20735;-93
2023/01/12 15:29:14;;;;;;;6.43;3.67;;;;;;;9.36;71.76;99238.38;5135106;27;20047;-93
2023/01/12 15:31:40;;;;;;;6.72;3.53;;;;;;;9.20;73.14;99240.41;5127946;27;20134;-93
2023/01/12 15:34:05;;;;;;;6.15;3.40;;;;;;;9.12;73.03;99244.91;5136437;27;20142;-93
2023/01/12 15:36:31;;;;;;;6.32;3.58;;;;;;;9.03;73.11;99259.19;5135587;27;20039;-94
2023/01/12 15:38:57;;;;;;;6.75;3.40;;;;;;;8.89;73.66;99245.22;5135770;27;20049;-95
2023/01/12 15:44:28;;;;;;;6.50;3.40;;;;;;;8.86;73.48;99269.13;5082023;27;20891;-94
2023/01/12 15:46:54;;;;;;;4.75;3.40;;;;;;;8.80;73.84;99270.06;5055076;27;20416;-95
2023/01/12 15:49:20;;;;;;;4.75;2.83;;;;;;;8.74;74.35;99275.44;5154029;27;20046;-94
2023/01/12 15:51:48;;;;;;;6.15;3.30;;;;;;;8.67;73.85;99263.16;5113418;27;20046;-94
2023/01/12 15:54:16;;;;;;;6.57;3.47;;;;;;;8.77;74.21;99286.91;5106900;27;20042;-93
2023/01/12 15:56:42;;;;;;;5.75;3.67;;;;;;;8.75;74.53;99272.78;5063485;27;20045;-95
2023/01/12 15:59:08;;;;;;;6.82;4.55;;;;;;;8.90;74.79;99305.34;5115620;27;20055;-95
2023/01/12 16:01:45;;;;;;;9.10;4.85;;;;;;;8.69;75.13;99282.59;5154571;27;20037;-95
2023/01/12 16:04:15;;;;;;;7.65;4.70;;;;;;;8.75;76.04;99311.69;5142734;27;20035;-95
2023/01/12 16:06:41;;;;;;;9.52;5.10;;;;;;;8.48;77.10;99292.53;5050672;28;20156;-94
2023/01/12 16:09:07;;;;;;;7.13;4.90;;;;;;;8.56;78.29;99329.56;5073481;27;20039;-95